createdAt,value
2017-05-17T00:00:46.782Z,991.4
2017-05-17T00:01:49.146Z,991.4
2017-05-17T00:02:51.490Z,991.4
2017-05-17T00:03:53.820Z,991.4
2017-05-17T00:04:56.183Z,991.3
2017-05-17T00:05:58.587Z,991.3
2017-05-17T00:07:00.915Z,991.3
2017-05-17T00:08:03.235Z,991.3
2017-05-17T00:09:05.541Z,991.3
2017-05-17T00:10:07.874Z,991.3
2017-05-17T00:11:10.219Z,991.1
2017-05-17T00:12:12.574Z,991.3
2017-05-17T00:13:15.688Z,991.3
2017-05-17T00:14:18.039Z,991.3
2017-05-17T00:15:20.427Z,991.3
2017-05-17T00:16:22.774Z,991.3
2017-05-17T00:17:25.122Z,991.4
2017-05-17T00:18:27.510Z,991.3
2017-05-17T00:19:29.894Z,991.3
2017-05-17T00:20:32.225Z,991.3
2017-05-17T00:21:34.618Z,991
2017-05-17T00:22:36.987Z,991.3
2017-05-17T00:23:39.397Z,991.3
2017-05-17T00:24:41.752Z,991.3
2017-05-17T00:25:44.050Z,991.2
2017-05-17T00:26:46.464Z,991.3
2017-05-17T00:27:48.829Z,991.3
2017-05-17T00:28:51.166Z,991.2
2017-05-17T00:29:53.526Z,991.3
2017-05-17T00:30:56.542Z,991
2017-05-17T00:31:58.921Z,991.2
2017-05-17T00:33:01.313Z,991.2
2017-05-17T00:34:03.690Z,991.2
2017-05-17T00:35:06.019Z,991.1
2017-05-17T00:36:08.403Z,991.2
2017-05-17T00:37:10.793Z,991.2
2017-05-17T00:38:13.124Z,991.2
2017-05-17T00:39:15.452Z,991.2
2017-05-17T00:40:17.805Z,991.2
2017-05-17T00:41:20.909Z,991.1
2017-05-17T00:42:32.196Z,991.2
2017-05-17T00:43:34.519Z,991.1
2017-05-17T00:44:36.852Z,991.1
2017-05-17T00:45:39.194Z,991.1
2017-05-17T00:46:41.529Z,991.1
2017-05-17T00:47:43.890Z,991.1
2017-05-17T00:48:46.212Z,991.1
2017-05-17T00:49:48.648Z,991.1
2017-05-17T00:50:51.011Z,991.1
2017-05-17T00:51:53.366Z,991
2017-05-17T00:52:55.713Z,991
2017-05-17T00:53:58.076Z,991
2017-05-17T00:55:00.453Z,991
2017-05-17T00:56:02.781Z,991.1
2017-05-17T00:57:05.076Z,991
2017-05-17T00:58:07.380Z,991.1
2017-05-17T00:59:09.731Z,991.1
2017-05-17T01:00:12.057Z,991.1
2017-05-17T01:01:14.432Z,991.1
2017-05-17T01:02:16.748Z,991
2017-05-17T01:03:19.063Z,991
2017-05-17T01:04:21.432Z,991
2017-05-17T01:05:23.752Z,990.9
2017-05-17T01:06:26.083Z,991
2017-05-17T01:07:28.471Z,990.9
2017-05-17T01:08:30.840Z,990.9
2017-05-17T01:09:33.159Z,990.9
2017-05-17T01:10:35.512Z,990.9
2017-05-17T01:11:37.847Z,990.9
2017-05-17T01:12:40.151Z,990.9
2017-05-17T01:13:42.503Z,990.8
2017-05-17T01:14:44.833Z,990.8
2017-05-17T01:15:47.191Z,990.8
2017-05-17T01:16:49.656Z,990.8
2017-05-17T01:17:51.971Z,990.8
2017-05-17T01:18:54.273Z,990.9
2017-05-17T01:19:56.645Z,990.8
2017-05-17T01:20:59.038Z,990.8
2017-05-17T01:22:01.400Z,990.8
2017-05-17T01:23:03.723Z,990.7
2017-05-17T01:24:06.046Z,990.7
2017-05-17T01:25:08.409Z,990.8
2017-05-17T01:26:10.726Z,990.7
2017-05-17T01:27:13.268Z,990.7
2017-05-17T01:28:15.574Z,990.7
2017-05-17T01:29:17.887Z,990.8
2017-05-17T01:30:20.197Z,990.7
2017-05-17T01:31:22.505Z,990.8
2017-05-17T01:32:24.851Z,990.8
2017-05-17T01:33:27.205Z,990.5
2017-05-17T01:34:29.821Z,990.7
2017-05-17T01:35:32.142Z,990.8
2017-05-17T01:36:34.519Z,990.7
2017-05-17T01:37:37.188Z,990.7
2017-05-17T01:38:39.580Z,990.8
2017-05-17T01:39:42.019Z,990.7
2017-05-17T01:40:44.347Z,990.8
2017-05-17T01:41:47.032Z,990.7
2017-05-17T01:42:49.394Z,990.7
2017-05-17T01:43:51.720Z,990.7
2017-05-17T01:44:54.092Z,990.5
2017-05-17T01:45:56.444Z,990.7
2017-05-17T01:46:58.960Z,990.7
2017-05-17T01:48:01.284Z,990.7
2017-05-17T01:49:03.614Z,990.7
2017-05-17T01:50:05.963Z,990.7
2017-05-17T01:51:08.883Z,990.7
2017-05-17T01:52:11.490Z,990.7
2017-05-17T01:53:13.806Z,990.7
2017-05-17T01:54:16.169Z,990.6
2017-05-17T01:55:18.534Z,990.6
2017-05-17T01:56:20.941Z,990.7
2017-05-17T01:57:23.257Z,990.6
2017-05-17T01:58:25.599Z,990.6
2017-05-17T01:59:27.947Z,990.6
2017-05-17T02:00:30.432Z,990.6
2017-05-17T02:01:32.732Z,990.6
2017-05-17T02:02:35.067Z,990.6
2017-05-17T02:03:37.496Z,990.5
2017-05-17T02:04:39.867Z,990.6
2017-05-17T02:05:42.210Z,990.6
2017-05-17T02:06:44.514Z,990.5
2017-05-17T02:07:46.878Z,990.5
2017-05-17T02:08:49.422Z,990.5
2017-05-17T02:09:51.856Z,990.5
2017-05-17T02:10:54.181Z,990.5
2017-05-17T02:11:56.518Z,990.5
2017-05-17T02:12:58.891Z,990.4
2017-05-17T02:14:01.250Z,990.4
2017-05-17T02:15:03.665Z,990.4
2017-05-17T02:16:05.978Z,990.4
2017-05-17T02:17:08.366Z,990.4
2017-05-17T02:18:10.679Z,990.4
2017-05-17T02:19:13.024Z,990.5
2017-05-17T02:20:15.388Z,990.4
2017-05-17T02:21:17.719Z,990.4
2017-05-17T02:22:20.054Z,990.4
2017-05-17T02:23:22.749Z,990.4
2017-05-17T02:24:25.111Z,990.4
2017-05-17T02:25:27.452Z,990.4
2017-05-17T02:26:29.809Z,990.4
2017-05-17T02:27:32.110Z,990.4
2017-05-17T02:28:34.455Z,990.4
2017-05-17T02:29:36.806Z,990.3
2017-05-17T02:30:39.147Z,990.4
2017-05-17T02:31:41.478Z,990.4
2017-05-17T02:32:43.798Z,990.4
2017-05-17T02:33:46.158Z,990.4
2017-05-17T02:34:48.504Z,990.4
2017-05-17T02:35:50.932Z,990.3
2017-05-17T02:36:53.227Z,990.3
2017-05-17T02:37:55.542Z,990.4
2017-05-17T02:38:57.996Z,990.1
2017-05-17T02:40:00.390Z,990.4
2017-05-17T02:41:02.729Z,990.4
2017-05-17T02:42:05.021Z,990.3
2017-05-17T02:43:07.366Z,990.4
2017-05-17T02:44:09.761Z,990.4
2017-05-17T02:45:12.072Z,990.3
2017-05-17T02:46:14.408Z,990.3
2017-05-17T02:47:16.748Z,990.4
2017-05-17T02:48:19.107Z,990.4
2017-05-17T02:49:21.449Z,990.3
2017-05-17T02:50:23.798Z,990.3
2017-05-17T02:51:26.126Z,990.3
2017-05-17T02:52:28.471Z,990.3
2017-05-17T02:53:31.341Z,990.3
2017-05-17T02:54:33.699Z,990.3
2017-05-17T02:55:36.071Z,990.3
2017-05-17T02:56:38.405Z,990.3
2017-05-17T02:57:40.759Z,990.3
2017-05-17T02:58:43.123Z,990.3
2017-05-17T02:59:45.463Z,990.3
2017-05-17T03:00:47.803Z,990.3
2017-05-17T03:01:50.193Z,990.3
2017-05-17T03:02:52.842Z,990.3
2017-05-17T03:03:55.205Z,990.3
2017-05-17T03:04:57.528Z,990.3
2017-05-17T03:05:59.871Z,990.3
2017-05-17T03:07:02.395Z,990.3
2017-05-17T03:08:04.733Z,990.3
2017-05-17T03:09:07.083Z,990.3
2017-05-17T03:10:09.545Z,990.3
2017-05-17T03:11:11.886Z,990.3
2017-05-17T03:12:14.224Z,990.2
2017-05-17T03:13:16.543Z,990.3
2017-05-17T03:14:19.551Z,990.3
2017-05-17T03:15:21.928Z,990.3
2017-05-17T03:16:24.245Z,990.3
2017-05-17T03:17:26.568Z,990.3
2017-05-17T03:18:28.936Z,990.3
2017-05-17T03:19:31.326Z,990.3
2017-05-17T03:20:33.710Z,990.3
2017-05-17T03:21:36.091Z,990.3
2017-05-17T03:22:38.427Z,990.3
2017-05-17T03:23:40.805Z,990.3
2017-05-17T03:24:43.122Z,990.4
2017-05-17T03:25:45.500Z,990.3
2017-05-17T03:26:47.826Z,990.4
2017-05-17T03:27:50.245Z,990.3
2017-05-17T03:28:52.578Z,990.4
2017-05-17T03:29:55.016Z,990.3
2017-05-17T03:30:57.346Z,990.3
2017-05-17T03:31:59.738Z,990.3
2017-05-17T03:33:02.056Z,990.3
2017-05-17T03:34:04.695Z,990.3
2017-05-17T03:35:07.097Z,990.2
2017-05-17T03:36:09.487Z,990.3
2017-05-17T03:37:11.822Z,990.2
2017-05-17T03:38:14.138Z,990.2
2017-05-17T03:39:16.504Z,990.3
2017-05-17T03:40:18.822Z,990.2
2017-05-17T03:41:21.234Z,990.2
2017-05-17T03:42:23.566Z,990.2
2017-05-17T03:43:25.940Z,990.2
2017-05-17T03:44:28.283Z,990.2
2017-05-17T03:45:30.685Z,990.2
2017-05-17T03:46:33.032Z,990.2
2017-05-17T03:47:35.367Z,990.1
2017-05-17T03:48:37.681Z,990.1
2017-05-17T03:49:40.671Z,990.2
2017-05-17T03:50:43.076Z,990.2
2017-05-17T03:51:45.432Z,990.2
2017-05-17T03:52:47.765Z,990.2
2017-05-17T03:53:50.195Z,990.2
2017-05-17T03:54:52.552Z,990.2
2017-05-17T03:55:54.884Z,990.2
2017-05-17T03:56:57.260Z,990.2
2017-05-17T03:57:59.645Z,990.2
2017-05-17T03:59:01.958Z,990.2
2017-05-17T04:00:04.338Z,990.2
2017-05-17T04:01:06.674Z,990.1
2017-05-17T04:02:09.064Z,990.2
2017-05-17T04:03:11.362Z,989.9
2017-05-17T04:04:13.725Z,989.9
2017-05-17T04:05:16.086Z,990.2
2017-05-17T04:06:18.779Z,990.1
2017-05-17T04:07:21.223Z,990.1
2017-05-17T04:08:24.207Z,990.2
2017-05-17T04:09:26.557Z,990.1
2017-05-17T04:10:29.130Z,990.1
2017-05-17T04:11:31.450Z,990.1
2017-05-17T04:12:33.830Z,990.1
2017-05-17T04:13:36.235Z,990.1
2017-05-17T04:14:38.918Z,990.1
2017-05-17T04:15:41.365Z,990.1
2017-05-17T04:16:43.711Z,990.1
2017-05-17T04:17:46.051Z,990.1
2017-05-17T04:18:48.417Z,990.1
2017-05-17T04:19:50.827Z,990
2017-05-17T04:20:53.167Z,990.1
2017-05-17T04:21:55.533Z,990.1
2017-05-17T04:22:57.883Z,990.2
2017-05-17T04:24:00.254Z,990.1
2017-05-17T04:26:13.955Z,990.1
2017-05-17T04:27:16.270Z,990.1
2017-05-17T04:28:18.663Z,990.2
2017-05-17T04:29:21.031Z,990
2017-05-17T04:31:34.633Z,990.1
2017-05-17T04:32:36.992Z,990.1
2017-05-17T04:33:39.449Z,990.1
2017-05-17T04:34:41.791Z,990.1
2017-05-17T04:35:44.126Z,990
2017-05-17T04:36:46.696Z,990.1
2017-05-17T04:37:49.159Z,990.1
2017-05-17T04:38:51.548Z,990.1
2017-05-17T04:39:53.860Z,990
2017-05-17T04:40:56.172Z,990.1
2017-05-17T04:41:58.517Z,990
2017-05-17T04:43:00.898Z,990.1
2017-05-17T04:44:03.276Z,990
2017-05-17T04:45:05.686Z,990
2017-05-17T04:46:08.104Z,990
2017-05-17T04:47:10.539Z,990
2017-05-17T04:48:12.907Z,990
2017-05-17T04:49:15.313Z,990
2017-05-17T04:50:17.678Z,990
2017-05-17T04:51:20.035Z,989.7
2017-05-17T04:52:22.389Z,990
2017-05-17T04:53:24.773Z,990
2017-05-17T04:54:27.151Z,990
2017-05-17T04:55:29.528Z,989.9
2017-05-17T04:56:31.934Z,989.9
2017-05-17T04:57:34.275Z,990
2017-05-17T04:58:36.619Z,990
2017-05-17T04:59:39.471Z,990
2017-05-17T05:00:41.804Z,990.1
2017-05-17T05:01:44.157Z,990
2017-05-17T05:02:46.522Z,990
2017-05-17T05:03:49.876Z,990
2017-05-17T05:04:52.247Z,990
2017-05-17T05:05:54.638Z,989.8
2017-05-17T05:06:56.999Z,990
2017-05-17T05:07:59.490Z,990
2017-05-17T05:09:01.859Z,990
2017-05-17T05:10:04.228Z,989.9
2017-05-17T05:11:06.678Z,990
2017-05-17T05:12:09.032Z,989.9
2017-05-17T05:13:11.355Z,989.5
2017-05-17T05:14:13.694Z,990
2017-05-17T05:15:16.058Z,990
2017-05-17T05:16:18.520Z,989.9
2017-05-17T05:17:21.143Z,990
2017-05-17T05:18:23.514Z,990
2017-05-17T05:19:25.844Z,990
2017-05-17T05:20:28.243Z,989.9
2017-05-17T05:21:30.692Z,989.9
2017-05-17T05:22:33.079Z,989.9
2017-05-17T05:23:35.425Z,990
2017-05-17T05:24:37.823Z,989.9
2017-05-17T05:25:40.674Z,989.9
2017-05-17T05:26:44.104Z,989.7
2017-05-17T05:27:47.246Z,989.6
2017-05-17T05:28:49.776Z,989.9
2017-05-17T05:29:53.285Z,989.9
2017-05-17T05:30:55.645Z,989.9
2017-05-17T05:31:57.975Z,989.9
2017-05-17T05:33:00.367Z,989.9
2017-05-17T05:34:02.737Z,989.9
2017-05-17T05:35:05.158Z,989.9
2017-05-17T05:36:07.559Z,989.9
2017-05-17T05:37:09.985Z,989.8
2017-05-17T05:38:12.367Z,989.8
2017-05-17T05:39:14.753Z,989.9
2017-05-17T05:40:17.172Z,989.9
2017-05-17T05:41:19.609Z,989.8
2017-05-17T05:42:21.990Z,989.9
2017-05-17T05:43:24.350Z,989.9
2017-05-17T05:44:26.724Z,989.8
2017-05-17T05:45:29.058Z,989.9
2017-05-17T05:46:31.482Z,989.8
2017-05-17T05:47:33.813Z,989.8
2017-05-17T05:48:36.176Z,989.8
2017-05-17T05:49:38.551Z,989.8
2017-05-17T05:50:41.012Z,989.6
2017-05-17T05:51:43.402Z,989.8
2017-05-17T05:52:45.729Z,989.8
2017-05-17T05:53:48.104Z,989.8
2017-05-17T05:54:50.530Z,989.8
2017-05-17T05:55:52.893Z,989.8
2017-05-17T05:56:55.213Z,989.8
2017-05-17T05:57:57.587Z,989.8
2017-05-17T05:59:00.067Z,989.8
2017-05-17T06:00:02.516Z,989.7
2017-05-17T06:01:04.898Z,989.8
2017-05-17T06:02:07.296Z,989.7
2017-05-17T06:03:09.753Z,989.8
2017-05-17T06:04:12.124Z,989.7
2017-05-17T06:05:14.689Z,989.7
2017-05-17T06:06:17.049Z,989.7
2017-05-17T06:07:19.516Z,989.7
2017-05-17T06:08:22.580Z,989.7
2017-05-17T06:09:24.985Z,989.7
2017-05-17T06:10:27.384Z,989.7
2017-05-17T06:11:29.837Z,989.7
2017-05-17T06:12:32.215Z,989.6
2017-05-17T06:13:34.615Z,989.6
2017-05-17T06:14:36.969Z,989.6
2017-05-17T06:15:39.443Z,989.6
2017-05-17T06:16:42.101Z,989.7
2017-05-17T06:17:44.491Z,989.6
2017-05-17T06:18:47.003Z,989.6
2017-05-17T06:19:49.477Z,989.6
2017-05-17T06:20:52.044Z,989.6
2017-05-17T06:21:55.243Z,989.5
2017-05-17T06:22:57.608Z,989.5
2017-05-17T06:24:00.174Z,989.5
2017-05-17T06:25:03.013Z,989.5
2017-05-17T06:26:05.536Z,989.5
2017-05-17T06:27:10.704Z,989
2017-05-17T06:28:13.247Z,989.5
2017-05-17T06:29:15.634Z,989.5
2017-05-17T06:30:18.107Z,989.4
2017-05-17T06:31:20.592Z,989.4
2017-05-17T06:32:22.994Z,989.4
2017-05-17T06:33:25.777Z,989.5
2017-05-17T06:34:28.222Z,989.5
2017-05-17T06:35:32.171Z,989.5
2017-05-17T06:36:34.607Z,989.5
2017-05-17T06:37:37.049Z,989.5
2017-05-17T06:38:39.712Z,989.5
2017-05-17T06:39:42.067Z,989.5
2017-05-17T06:40:44.413Z,989.5
2017-05-17T06:41:46.830Z,989.5
2017-05-17T06:42:49.259Z,989.5
2017-05-17T06:43:51.660Z,989.5
2017-05-17T06:44:54.103Z,989.5
2017-05-17T06:45:56.481Z,989.5
2017-05-17T06:46:58.933Z,989.5
2017-05-17T06:48:01.420Z,989.5
2017-05-17T06:49:03.869Z,989.5
2017-05-17T06:50:06.274Z,989.5
2017-05-17T06:51:09.031Z,989.5
2017-05-17T06:52:11.602Z,989.5
2017-05-17T06:53:14.316Z,989.5
2017-05-17T06:54:16.761Z,989.5
2017-05-17T06:55:19.963Z,989.5
2017-05-17T06:56:22.345Z,989.5
2017-05-17T06:57:24.704Z,989.5
2017-05-17T06:58:27.128Z,989.5
2017-05-17T06:59:29.538Z,989.5
2017-05-17T07:00:32.089Z,989.5
2017-05-17T07:01:34.526Z,989.5
2017-05-17T07:02:36.880Z,989.5
2017-05-17T07:03:40.260Z,989.5
2017-05-17T07:04:42.958Z,989.4
2017-05-17T07:05:45.517Z,989.5
2017-05-17T07:06:47.961Z,989.5
2017-05-17T07:07:50.506Z,989.1
2017-05-17T07:08:52.924Z,989.2
2017-05-17T07:09:55.332Z,989.4
2017-05-17T07:10:57.739Z,989.5
2017-05-17T07:12:00.247Z,989.5
2017-05-17T07:13:02.632Z,989.4
2017-05-17T07:14:05.093Z,989.4
2017-05-17T07:15:07.530Z,989.5
2017-05-17T07:16:10.014Z,989.4
2017-05-17T07:17:12.472Z,989.4
2017-05-17T07:18:14.895Z,989.4
2017-05-17T07:19:17.316Z,989.4
2017-05-17T07:20:19.696Z,989.4
2017-05-17T07:21:22.195Z,989.4
2017-05-17T07:22:24.668Z,989.4
2017-05-17T07:23:27.089Z,989.4
2017-05-17T07:24:29.481Z,989.3
2017-05-17T07:25:31.877Z,989.4
2017-05-17T07:26:34.351Z,989.4
2017-05-17T07:27:36.814Z,989.2
2017-05-17T07:28:39.182Z,989.3
2017-05-17T07:29:41.660Z,989.3
2017-05-17T07:30:44.034Z,989.2
2017-05-17T07:31:46.556Z,989.3
2017-05-17T07:32:49.087Z,989.3
2017-05-17T07:33:51.560Z,989.3
2017-05-17T07:34:53.958Z,989.3
2017-05-17T07:35:56.622Z,989.3
2017-05-17T07:36:59.074Z,989.3
2017-05-17T07:38:01.604Z,989
2017-05-17T07:39:04.051Z,989.1
2017-05-17T07:40:06.800Z,989.1
2017-05-17T07:41:09.226Z,989.1
2017-05-17T07:42:11.683Z,989.1
2017-05-17T07:43:14.156Z,989.1
2017-05-17T07:44:16.683Z,989.1
2017-05-17T07:45:19.124Z,989.1
2017-05-17T07:46:21.684Z,989.1
2017-05-17T07:47:24.239Z,989.1
2017-05-17T07:48:26.673Z,989.1
2017-05-17T07:49:29.060Z,989.1
2017-05-17T07:50:32.172Z,989.1
2017-05-17T07:51:34.597Z,989.1
2017-05-17T07:52:36.992Z,989.1
2017-05-17T07:53:39.503Z,989.1
2017-05-17T07:54:41.933Z,989.1
2017-05-17T07:55:44.445Z,989
2017-05-17T07:56:46.837Z,989
2017-05-17T07:57:49.312Z,989
2017-05-17T07:58:51.751Z,989
2017-05-17T07:59:54.962Z,989
2017-05-17T08:00:57.521Z,989
2017-05-17T08:02:04.817Z,988.9
2017-05-17T08:03:07.304Z,989
2017-05-17T08:04:09.791Z,988.9
2017-05-17T08:05:12.308Z,989
2017-05-17T08:06:14.673Z,989
2017-05-17T08:07:17.279Z,988.9
2017-05-17T08:08:19.699Z,988.9
2017-05-17T08:09:22.097Z,988.9
2017-05-17T08:10:24.501Z,988.7
2017-05-17T08:11:26.915Z,988.9
2017-05-17T08:12:29.359Z,988.9
2017-05-17T08:13:32.347Z,988.9
2017-05-17T08:14:34.776Z,988.9
2017-05-17T08:15:37.146Z,988.6
2017-05-17T08:16:39.670Z,988.9
2017-05-17T08:17:42.428Z,988.9
2017-05-17T08:18:44.839Z,988.9
2017-05-17T08:19:47.402Z,988.6
2017-05-17T08:20:50.503Z,988.8
2017-05-17T08:21:53.315Z,988.8
2017-05-17T08:22:55.728Z,988.8
2017-05-17T08:23:58.149Z,988.7
2017-05-17T08:25:00.621Z,988.7
2017-05-17T08:26:03.103Z,988.8
2017-05-17T08:27:05.523Z,988.8
2017-05-17T08:28:08.047Z,988.7
2017-05-17T08:29:10.537Z,988.5
2017-05-17T08:30:13.027Z,988.5
2017-05-17T08:31:15.442Z,988.7
2017-05-17T08:32:18.554Z,988.5
2017-05-17T08:33:21.062Z,988.8
2017-05-17T08:34:23.510Z,988.9
2017-05-17T08:35:25.951Z,988.8
2017-05-17T08:36:28.400Z,988.7
2017-05-17T08:37:30.888Z,988.8
2017-05-17T08:38:33.846Z,988.8
2017-05-17T08:39:36.283Z,988.8
2017-05-17T08:40:38.826Z,988.7
2017-05-17T08:41:41.695Z,988.7
2017-05-17T08:42:44.124Z,988.8
2017-05-17T08:43:46.540Z,988.7
2017-05-17T08:44:49.009Z,988.7
2017-05-17T08:45:51.616Z,988.7
2017-05-17T08:46:54.036Z,988.6
2017-05-17T08:47:56.465Z,988.7
2017-05-17T08:48:58.988Z,988.7
2017-05-17T08:50:01.519Z,988.6
2017-05-17T08:51:03.979Z,988.6
2017-05-17T08:52:06.411Z,988.6
2017-05-17T08:53:08.824Z,988.6
2017-05-17T08:54:11.393Z,988.5
2017-05-17T08:55:13.789Z,988.5
2017-05-17T08:56:16.747Z,988.5
2017-05-17T08:57:19.806Z,988.5
2017-05-17T08:58:22.330Z,988.5
2017-05-17T08:59:24.793Z,988.5
2017-05-17T09:00:27.222Z,988.5
2017-05-17T09:01:29.650Z,988.5
2017-05-17T09:02:32.212Z,988.4
2017-05-17T09:03:34.639Z,988.4
2017-05-17T09:04:37.078Z,988.5
2017-05-17T09:05:39.583Z,988.4
2017-05-17T09:06:42.050Z,988.4
2017-05-17T09:07:44.485Z,988.4
2017-05-17T09:08:46.874Z,988.4
2017-05-17T09:09:49.612Z,988.4
2017-05-17T09:10:52.185Z,988.3
2017-05-17T09:11:54.597Z,988.3
2017-05-17T09:12:57.108Z,988.3
2017-05-17T09:13:59.594Z,988.1
2017-05-17T09:15:02.092Z,988.2
2017-05-17T09:16:04.573Z,988
2017-05-17T09:17:07.000Z,988.2
2017-05-17T09:18:10.065Z,988.1
2017-05-17T09:19:12.779Z,988.1
2017-05-17T09:20:15.223Z,987.9
2017-05-17T09:21:18.316Z,988.1
2017-05-17T09:22:20.816Z,988
2017-05-17T09:23:23.310Z,988.2
2017-05-17T09:24:25.792Z,988.1
2017-05-17T09:25:28.520Z,988.1
2017-05-17T09:26:31.130Z,988
2017-05-17T09:27:33.646Z,988.1
2017-05-17T09:28:36.164Z,988
2017-05-17T09:29:38.878Z,987.9
2017-05-17T09:30:42.086Z,987.7
2017-05-17T09:31:44.694Z,987.9
2017-05-17T09:32:47.295Z,988
2017-05-17T09:33:50.107Z,987.9
2017-05-17T09:34:52.890Z,987.9
2017-05-17T09:35:55.415Z,987.9
2017-05-17T09:36:58.032Z,987.9
2017-05-17T09:38:00.919Z,987.8
2017-05-17T09:39:03.421Z,987.9
2017-05-17T09:40:05.992Z,987.9
2017-05-17T09:41:08.532Z,987.9
2017-05-17T09:42:11.129Z,988
2017-05-17T09:43:13.573Z,987.9
2017-05-17T09:44:16.319Z,987.8
2017-05-17T09:45:18.791Z,987.9
2017-05-17T09:46:21.350Z,987.8
2017-05-17T09:47:23.797Z,987.8
2017-05-17T09:48:26.311Z,987.9
2017-05-17T09:49:28.826Z,987.8
2017-05-17T09:50:31.441Z,987.8
2017-05-17T09:51:33.882Z,987.7
2017-05-17T09:52:37.043Z,987.8
2017-05-17T09:53:39.571Z,987.7
2017-05-17T09:54:42.237Z,987.8
2017-05-17T09:55:44.951Z,987.7
2017-05-17T09:56:47.491Z,987.8
2017-05-17T09:57:50.011Z,987.7
2017-05-17T09:58:52.515Z,987.7
2017-05-17T09:59:55.035Z,987.7
2017-05-17T10:00:57.511Z,987.7
2017-05-17T10:02:00.003Z,987.6
2017-05-17T10:03:02.552Z,987.7
2017-05-17T10:04:05.087Z,987.6
2017-05-17T10:05:07.577Z,987.7
2017-05-17T10:06:10.696Z,987.6
2017-05-17T10:07:13.227Z,987.6
2017-05-17T10:08:15.780Z,987.4
2017-05-17T10:09:18.885Z,987.5
2017-05-17T10:10:21.425Z,987.4
2017-05-17T10:11:23.902Z,987.4
2017-05-17T10:12:26.760Z,987.4
2017-05-17T10:13:29.243Z,987.4
2017-05-17T10:14:32.470Z,987.5
2017-05-17T10:15:34.886Z,987.5
2017-05-17T10:16:37.376Z,987.5
2017-05-17T10:17:39.933Z,987.5
2017-05-17T10:18:42.415Z,987.4
2017-05-17T10:19:44.987Z,987.4
2017-05-17T10:20:47.501Z,987.4
2017-05-17T10:21:50.024Z,987.4
2017-05-17T10:22:52.591Z,987.4
2017-05-17T10:23:55.080Z,987.3
2017-05-17T10:24:58.055Z,987.3
2017-05-17T10:26:01.140Z,987.3
2017-05-17T10:27:03.647Z,987.4
2017-05-17T10:28:06.141Z,987.3
2017-05-17T10:29:08.586Z,987.2
2017-05-17T10:30:11.100Z,987.3
2017-05-17T10:31:13.534Z,987.3
2017-05-17T10:32:16.012Z,987.3
2017-05-17T10:33:18.817Z,987.3
2017-05-17T10:34:21.316Z,987.2
2017-05-17T10:35:25.846Z,987.2
2017-05-17T10:36:28.299Z,987.2
2017-05-17T10:37:31.359Z,987.2
2017-05-17T10:38:33.955Z,987.2
2017-05-17T10:39:36.389Z,987.2
2017-05-17T10:40:38.893Z,987.1
2017-05-17T10:41:41.327Z,987.2
2017-05-17T10:42:44.543Z,986.8
2017-05-17T10:43:47.378Z,987
2017-05-17T10:44:49.984Z,987.1
2017-05-17T10:45:52.720Z,987.1
2017-05-17T10:46:56.139Z,987
2017-05-17T10:47:58.662Z,987
2017-05-17T10:49:02.260Z,987
2017-05-17T10:50:06.253Z,986.9
2017-05-17T10:51:09.047Z,986.9
2017-05-17T10:52:13.053Z,987
2017-05-17T10:53:16.040Z,986.8
2017-05-17T10:54:19.643Z,987
2017-05-17T10:55:22.531Z,986.9
2017-05-17T10:56:26.340Z,987
2017-05-17T10:57:29.626Z,986.9
2017-05-17T10:58:32.433Z,986.9
2017-05-17T10:59:36.628Z,986.9
2017-05-17T11:00:39.192Z,986.8
2017-05-17T11:01:42.543Z,986.8
2017-05-17T11:02:46.713Z,986.6
2017-05-17T11:03:49.339Z,986.8
2017-05-17T11:04:52.394Z,986.8
2017-05-17T11:05:55.026Z,986.8
2017-05-17T11:06:57.823Z,986.7
2017-05-17T11:08:00.466Z,986.7
2017-05-17T11:09:03.357Z,986.4
2017-05-17T11:10:06.296Z,986.5
2017-05-17T11:11:10.606Z,986.6
2017-05-17T11:12:13.825Z,986.8
2017-05-17T11:13:16.303Z,986.7
2017-05-17T11:14:18.998Z,986.7
2017-05-17T11:15:22.248Z,986.7
2017-05-17T11:16:24.813Z,986.7
2017-05-17T11:17:27.847Z,986.6
2017-05-17T11:18:30.401Z,986.6
2017-05-17T11:19:33.992Z,986.3
2017-05-17T11:20:36.670Z,986.6
2017-05-17T11:21:39.287Z,986.5
2017-05-17T11:22:41.996Z,986.6
2017-05-17T11:23:44.523Z,986.6
2017-05-17T11:24:47.422Z,986.6
2017-05-17T11:25:50.060Z,986.5
2017-05-17T11:26:52.798Z,986.5
2017-05-17T11:27:55.932Z,986.5
2017-05-17T11:28:58.572Z,986.5
2017-05-17T11:30:01.219Z,986.5
2017-05-17T11:31:03.795Z,986.2
2017-05-17T11:32:06.437Z,986.4
2017-05-17T11:33:09.122Z,986.4
2017-05-17T11:34:12.376Z,986.1
2017-05-17T11:35:14.857Z,986.3
2017-05-17T11:36:17.510Z,986.2
2017-05-17T11:37:20.056Z,986.3
2017-05-17T11:38:22.595Z,986.3
2017-05-17T11:39:25.134Z,986.1
2017-05-17T11:40:28.584Z,986.3
2017-05-17T11:41:31.245Z,986.3
2017-05-17T11:42:33.821Z,986.2
2017-05-17T11:43:36.254Z,986.2
2017-05-17T11:44:39.406Z,986.1
2017-05-17T11:45:42.577Z,986.2
2017-05-17T11:46:45.720Z,986.1
2017-05-17T11:47:49.220Z,985.9
2017-05-17T11:48:51.807Z,986.1
2017-05-17T11:49:54.283Z,986.1
2017-05-17T11:50:56.853Z,986
2017-05-17T11:51:59.359Z,986
2017-05-17T11:53:01.914Z,985.9
2017-05-17T11:54:04.478Z,985.9
2017-05-17T11:55:06.927Z,985.8
2017-05-17T11:56:09.567Z,986
2017-05-17T11:57:12.144Z,986
2017-05-17T11:58:15.282Z,986
2017-05-17T11:59:17.659Z,986
2017-05-17T12:00:21.305Z,985.9
2017-05-17T12:01:23.820Z,985.9
2017-05-17T12:02:26.357Z,985.9
2017-05-17T12:03:28.758Z,985.9
2017-05-17T12:04:32.200Z,985.9
2017-05-17T12:05:34.716Z,985.9
2017-05-17T12:06:37.102Z,985.9
2017-05-17T12:07:40.125Z,985.9
2017-05-17T12:08:44.204Z,986
2017-05-17T12:09:46.676Z,985.8
2017-05-17T12:10:49.606Z,985.8
2017-05-17T12:11:52.118Z,985.8
2017-05-17T12:12:54.718Z,985.5
2017-05-17T12:13:58.939Z,985.8
2017-05-17T12:15:01.481Z,985.8
2017-05-17T12:16:04.539Z,985.5
2017-05-17T12:17:07.800Z,985.7
2017-05-17T12:18:10.255Z,985.5
2017-05-17T12:19:14.073Z,985.7
2017-05-17T12:20:16.462Z,985.7
2017-05-17T12:21:19.072Z,985.6
2017-05-17T12:22:21.620Z,985.6
2017-05-17T12:23:24.025Z,985.6
2017-05-17T12:24:26.514Z,985.6
2017-05-17T12:25:29.063Z,985.6
2017-05-17T12:26:32.197Z,985.6
2017-05-17T12:27:35.468Z,985.6
2017-05-17T12:28:37.986Z,985.5
2017-05-17T12:29:42.335Z,985.6
2017-05-17T12:30:44.788Z,985.3
2017-05-17T12:31:47.736Z,985.4
2017-05-17T12:32:51.892Z,985.5
2017-05-17T12:33:54.456Z,985.4
2017-05-17T12:34:58.329Z,985.5
2017-05-17T12:36:02.280Z,985.4
2017-05-17T12:37:05.339Z,985.5
2017-05-17T12:38:07.869Z,985.4
2017-05-17T12:39:10.361Z,985.4
2017-05-17T12:40:13.025Z,985.3
2017-05-17T12:41:15.574Z,985.3
2017-05-17T12:42:23.378Z,985.3
2017-05-17T12:43:26.799Z,985.3
2017-05-17T12:44:30.057Z,985.3
2017-05-17T12:45:32.588Z,985.3
2017-05-17T12:46:35.072Z,985.4
2017-05-17T12:47:37.481Z,985.3
2017-05-17T12:48:39.977Z,985.3
2017-05-17T12:49:42.667Z,985.3
2017-05-17T12:50:45.208Z,985.1
2017-05-17T12:51:47.774Z,985.3
2017-05-17T12:52:50.356Z,985.2
2017-05-17T12:53:52.878Z,985.3
2017-05-17T12:54:56.280Z,985.2
2017-05-17T12:56:03.054Z,985.3
2017-05-17T12:57:05.535Z,985.2
2017-05-17T12:58:08.026Z,985.1
2017-05-17T12:59:10.546Z,985.1
2017-05-17T13:00:13.000Z,985.2
2017-05-17T13:01:15.410Z,985.1
2017-05-17T13:02:17.927Z,985.1
2017-05-17T13:03:21.393Z,985.1
2017-05-17T13:04:25.276Z,985.1
2017-05-17T13:05:27.820Z,985.2
2017-05-17T13:06:31.052Z,985.1
2017-05-17T13:07:34.164Z,985
2017-05-17T13:08:36.655Z,985
2017-05-17T13:09:40.084Z,985
2017-05-17T13:10:44.408Z,985
2017-05-17T13:11:47.050Z,985
2017-05-17T13:12:49.564Z,984.9
2017-05-17T13:13:52.059Z,984.8
2017-05-17T13:14:55.148Z,984.9
2017-05-17T13:15:59.107Z,984.9
2017-05-17T13:17:01.586Z,984.9
2017-05-17T13:18:04.076Z,984.9
2017-05-17T13:19:06.714Z,984.8
2017-05-17T13:20:09.281Z,984.8
2017-05-17T13:21:11.821Z,984.8
2017-05-17T13:22:15.288Z,984.7
2017-05-17T13:23:17.772Z,984.7
2017-05-17T13:24:20.206Z,984.7
2017-05-17T13:25:23.447Z,984.7
2017-05-17T13:26:25.905Z,984.7
2017-05-17T13:27:28.882Z,984.7
2017-05-17T13:28:31.399Z,984.7
2017-05-17T13:29:37.957Z,984.6
2017-05-17T13:30:41.264Z,984.6
2017-05-17T13:31:43.717Z,984.6
2017-05-17T13:32:47.155Z,984.6
2017-05-17T13:33:49.635Z,984.5